ADDS METAR Data INFO
IDs: Format: Raw Decoded Include TAF

Data at: 1925 UTC 23 Apr 2018

KGGI 231915Z AUTO 02011G18KT 10SM CLR 21/M03 A3013 RMK AO2 T02091031
KGGI 231855Z AUTO 03010G17KT 10SM CLR 20/M03 A3013 RMK AO2 T02021027
KGGI 231835Z AUTO 05010G18KT 10SM CLR 21/M03 A3014 RMK AO2 T02071030
KGGI 231815Z AUTO 03009G15KT 10SM CLR 20/M04 A3015 RMK AO2 T01971038
KGGI 231755Z AUTO 05014KT 10SM CLR 20/M05 A3016 RMK AO2 T01951047 10196 20076
KGGI 231735Z AUTO 05009G17KT 10SM CLR 19/M05 A3017 RMK AO2 T01911048
KGGI 231715Z AUTO 04007G15KT 010V080 10SM CLR 18/M04 A3018 RMK AO2 T01811037
KGGI 231655Z AUTO 07008G15KT 10SM CLR 18/M03 A3018 RMK AO2 T01821034
KGGI 231635Z AUTO 07010G16KT 10SM CLR 18/M04 A3019 RMK AO2 T01791041
KGGI 231615Z AUTO 02007KT 10SM CLR 17/M03 A3019 RMK AO2 T01701027
KGGI 231535Z AUTO 04008KT 10SM CLR 15/M02 A3020 RMK AO2 T01521018
KGGI 231515Z AUTO 04008KT 10SM CLR 14/M01 A3020 RMK AO2 T01441015
KGGI 231455Z AUTO 05009KT 10SM CLR 14/M02 A3020 RMK AO2 T01351018
KGGI 231435Z AUTO 06008KT 10SM CLR 13/M01 A3021 RMK AO2 T01261014
KGGI 231415Z AUTO 06008KT 10SM CLR 11/M01 A3022 RMK AO2 T01131009
KGGI 231355Z AUTO 06008KT 10SM CLR 10/00 A3022 RMK AO2 T01011003
KGGI 231335Z AUTO 06007KT 10SM CLR 09/00 A3022 RMK AO2 T00931001
KGGI 231315Z AUTO 05008KT 10SM CLR 09/00 A3022 RMK AO2 T00880000
KGGI 231255Z AUTO 06008KT 10SM CLR 08/00 A3022 RMK AO2 T00831004
KGGI 231235Z AUTO 06009KT 10SM CLR 08/00 A3022 RMK AO2 T00801005
KGGI 231215Z AUTO 04009KT 10SM CLR 08/00 A3022 RMK AO2 T00771005
KGGI 231155Z AUTO 05009KT 10SM CLR 08/M01 A3021 RMK AO2 T00771006 10080 20064
KGGI 231135Z AUTO 06009KT 10SM SCT120 08/M01 A3020 RMK AO2 T00791008
KGGI 231115Z AUTO 06010KT 10SM BKN120 08/M01 A3020 RMK AO2 T00801009
KGGI 231055Z AUTO 06009KT 10SM SCT120 08/M01 A3020 RMK AO2 T00771007
KGGI 231035Z AUTO 05008KT 10SM CLR 08/M01 A3020 RMK AO2 T00771008
KGGI 231015Z AUTO 06008KT 10SM CLR 08/M01 A3019 RMK AO2 T00801010
KGGI 230955Z AUTO 05007KT 10SM CLR 08/M01 A3019 RMK AO2 T00771009
KGGI 230935Z AUTO 06007KT 10SM CLR 08/M01 A3019 RMK AO2 T00801009
KGGI 230915Z AUTO 06007KT 10SM CLR 08/M01 A3019 RMK AO2 T00801008
KGGI 230855Z AUTO 06007KT 10SM CLR 08/M01 A3019 RMK AO2 T00801009
KGGI 230835Z AUTO 06006KT 10SM CLR 07/00 A3019 RMK AO2 T00721005
KGGI 230815Z AUTO 07006KT 10SM CLR 07/M01 A3020 RMK AO2 T00671010
KGGI 230755Z AUTO 07006KT 10SM CLR 07/M01 A3020 RMK AO2 T00661012
KGGI 230735Z AUTO 06006KT 10SM CLR 07/M01 A3020 RMK AO2 T00681010
KGGI 230715Z AUTO 07006KT 10SM BKN100 07/00 A3020 RMK AO2 T00711005
KGGI 230655Z AUTO 07006KT 10SM BKN100 07/00 A3021 RMK AO2 T00731005
KGGI 230635Z AUTO 09006KT 10SM CLR 08/00 A3021 RMK AO2 T00771004
KGGI 230615Z AUTO 09006KT 10SM CLR 08/00 A3021 RMK AO2 T00770000
KGGI 230555Z AUTO 09005KT 10SM CLR 09/00 A3021 RMK AO2 T00850000 10182 20085 402000040
KGGI 230535Z AUTO 09007KT 10SM SCT100 09/00 A3020 RMK AO2 T00900000
KGGI 230515Z AUTO 09007KT 10SM OVC100 10/00 A3020 RMK AO2 T01010000
KGGI 230455Z AUTO 08007KT 10SM OVC100 11/00 A3020 RMK AO2 T01070001
KGGI 230435Z AUTO 08007KT 10SM OVC100 11/01 A3020 RMK AO2 T01080005
KGGI 230415Z AUTO 08007KT 10SM OVC100 12/00 A3020 RMK AO2 T01180003
KGGI 230355Z AUTO 08008KT 10SM OVC100 13/00 A3020 RMK AO2 T01260000
KGGI 230335Z AUTO 07011KT 10SM OVC100 13/00 A3020 RMK AO2 T01310000
KGGI 230315Z AUTO 06010KT 10SM OVC100 13/00 A3020 RMK AO2 T01320000
KGGI 230255Z AUTO 06010KT 10SM OVC090 13/00 A3020 RMK AO2 T01331004
KGGI 230235Z AUTO 07006KT 10SM OVC090 12/M01 A3020 RMK AO2 T01241006
KGGI 230215Z AUTO 08006KT 10SM OVC090 13/M01 A3020 RMK AO2 T01281010
KGGI 230155Z AUTO 08006KT 10SM BKN090 13/M01 A3020 RMK AO2 T01331012
KGGI 230135Z AUTO 07006KT 10SM SCT090 14/M01 A3020 RMK AO2 T01361011
KGGI 230115Z AUTO 07009KT 10SM SCT090 15/M01 A3019 RMK AO2 T01511012
KGGI 230055Z AUTO 06010KT 10SM CLR 16/M02 A3019 RMK AO2 T01631017
KGGI 230035Z AUTO 06010KT 10SM CLR 17/M03 A3019 RMK AO2 T01711026
KGGI 230015Z AUTO 08014KT 10SM CLR 18/M03 A3018 RMK AO2 T01761028
KGGI 222355Z AUTO 08011G17KT 10SM CLR 19/M04 A3018 RMK AO2 T01851042 10200 20166
KGGI 222335Z AUTO 09011KT 10SM CLR 19/M06 A3019 RMK AO2 T01921061
KGGI 222315Z AUTO 08012G16KT 10SM CLR 19/M06 A3018 RMK AO2 T01851062
KGGI 222255Z AUTO 08014G17KT 10SM CLR 20/M07 A3018 RMK AO2 T01961074
KGGI 222235Z AUTO 07012G21KT 10SM CLR 20/M09 A3018 RMK AO2 T01951092
KGGI 222215Z AUTO 08015G19KT 10SM CLR 20/M07 A3018 RMK AO2 T01991073
KGGI 222155Z AUTO 06014G20KT 10SM CLR 20/M08 A3018 RMK AO2 T01951083
KGGI 222115Z AUTO 07014G19KT 10SM CLR 20/M07 A3019 RMK AO2 T01961075
KGGI 222055Z AUTO 07013G19KT 10SM CLR 18/M07 A3020 RMK AO2 T01841071
KGGI 222015Z AUTO 06013G21KT 10SM CLR 19/M05 A3021 RMK AO2 T01901054
KGGI 221955Z AUTO 09011G15KT 10SM SCT120 19/M05 A3021 RMK AO2 T01901052
KGGI 221935Z AUTO 08014G20KT 10SM SCT120 19/M04 A3022 RMK AO2 T01941044
KGGI 221855Z AUTO 08014G20KT 10SM SCT120 18/M04 A3023 RMK AO2 T01801045
KGGI 221835Z AUTO 09013G20KT 10SM BKN120 17/M05 A3023 RMK AO2 T01681052
KGGI 221815Z AUTO 09014G17KT 10SM BKN120 17/M05 A3023 RMK AO2 T01711053
KGGI 221755Z AUTO 09014G20KT 10SM OVC120 17/M05 A3024 RMK AO2 T01711055 10173 20055
KGGI 221735Z AUTO 08015G20KT 10SM BKN120 17/M06 A3024 RMK AO2 T01721056
KGGI 221715Z AUTO 09015KT 10SM SCT120 16/M05 A3025 RMK AO2 T01611050
KGGI 221655Z AUTO 08015G18KT 10SM CLR 16/M05 A3025 RMK AO2 T01571046
KGGI 221615Z AUTO 09014G21KT 10SM CLR 14/M04 A3026 RMK AO2 T01421040
KGGI 221555Z AUTO 08014KT 10SM CLR 14/M03 A3027 RMK AO2 T01361033
KGGI 221535Z AUTO 08015KT 10SM CLR 12/M03 A3028 RMK AO2 T01191033
KGGI 221515Z AUTO 09014G18KT 10SM CLR 11/M04 A3028 RMK AO2 T01081037
KGGI 221455Z AUTO 09015G19KT 10SM CLR 10/M03 A3028 RMK AO2 T01031034
KGGI 221435Z AUTO 08013KT 10SM CLR 10/M03 A3028 RMK AO2 T00981027
KGGI 221415Z AUTO 09011KT 10SM CLR 09/M02 A3028 RMK AO2 T00901020
KGGI 221355Z AUTO 08010KT 10SM CLR 08/M02 A3028 RMK AO2 T00801016
KGGI 221335Z AUTO 08014G17KT 10SM CLR 08/M01 A3028 RMK AO2 T00771011
KGGI 221315Z AUTO 06012KT 10SM CLR 07/M01 A3028 RMK AO2 T00671007
KGGI 221255Z AUTO 07011KT 10SM SCT120 06/00 A3028 RMK AO2 T00611001
KGGI 221235Z AUTO 08009KT 10SM OVC120 06/00 A3029 RMK AO2 T00580000
KGGI 221215Z AUTO 07010KT 10SM OVC120 06/00 A3029 RMK AO2 T00570000
KGGI 221155Z AUTO 07008KT 10SM OVC120 06/00 A3028 RMK AO2 T00560002 10080 20040
KGGI 221135Z AUTO 07011KT 10SM SCT120 06/00 A3028 RMK AO2 T00550002
KGGI 221115Z AUTO 07008KT 10SM SCT120 06/01 A3027 RMK AO2 T00550005
KGGI 221055Z AUTO 06008KT 10SM CLR 06/00 A3027 RMK AO2 T00560003
KGGI 221035Z AUTO 06009KT 10SM CLR 06/00 A3027 RMK AO2 T00550003
KGGI 221015Z AUTO 06009KT 10SM CLR 06/00 A3027 RMK AO2 T00550001
KGGI 220955Z AUTO 07008KT 10SM CLR 06/00 A3027 RMK AO2 T00570000
KGGI 220935Z AUTO 07009KT 10SM CLR 06/00 A3027 RMK AO2 T00560003
KGGI 220915Z AUTO 06008KT 10SM CLR 05/01 A3027 RMK AO2 T00500005
KGGI 220855Z AUTO 07007KT 10SM CLR 05/01 A3028 RMK AO2 T00540006
KGGI 220835Z AUTO 08006KT 10SM CLR 05/00 A3028 RMK AO2 T00450002
KGGI 220815Z AUTO 08007KT 10SM CLR 05/01 A3028 RMK AO2 T00460005
KGGI 220755Z AUTO 09005KT 10SM CLR 06/01 A3028 RMK AO2 T00630007
KGGI 220735Z AUTO 10006KT 10SM CLR 06/01 A3028 RMK AO2 T00570008